Time;durP1;ratioP1;P1;durP2;ratioP2;P2;SDS_P1;SDS_P2;PMS_P1;PMS_P2;Temp;Humidity;BMP_temperature;BMP_pressure;BME280_temperature;BME280_humidity;BME280_pressure;Samples;Min_cycle;Max_cycle;Signal;HPM_P1;HPM_P2
2022/02/01 00:01:43;;;;;;;0.52;0.50;;;8.00;97.10;;;;;;5060843;28;20561;-49
2022/02/01 00:04:17;;;;;;;1.10;0.65;;;7.90;97.10;;;;;;5061729;28;20186;-48
2022/02/01 00:07:03;;;;;;;0.52;0.52;;;8.00;97.20;;;;;;5059140;28;20071;-49
2022/02/01 00:09:42;;;;;;;0.80;0.40;;;8.00;97.20;;;;;;5061269;28;20032;-49
2022/02/01 00:12:57;;;;;;;0.50;0.50;;;8.00;97.20;;;;;;5060325;28;20036;-49
2022/02/01 00:20:35;;;;;;;0.68;0.55;;;7.90;97.20;;;;;;5058128;28;20135;-49
2022/02/01 00:36:54;;;;;;;0.30;0.30;;;8.00;97.30;;;;;;5070508;28;20442;-49
2022/02/01 00:39:28;;;;;;;0.35;0.35;;;8.00;97.30;;;;;;5060728;28;20029;-49
2022/02/01 00:41:54;;;;;;;0.43;0.43;;;8.00;97.20;;;;;;5059872;28;20051;-48
2022/02/01 00:44:20;;;;;;;0.38;0.38;;;7.90;97.20;;;;;;5059716;28;20025;-48
2022/02/01 00:46:46;;;;;;;0.50;0.50;;;7.90;97.20;;;;;;5061580;28;20047;-49
2022/02/01 00:49:12;;;;;;;0.55;0.43;;;8.00;97.20;;;;;;5059374;28;20025;-49
2022/02/01 00:51:38;;;;;;;0.60;0.60;;;7.90;97.20;;;;;;5058241;28;20029;-48
2022/02/01 00:54:04;;;;;;;1.00;0.60;;;7.90;97.30;;;;;;5060065;28;20470;-48
2022/02/01 00:56:30;;;;;;;1.35;0.55;;;8.00;97.20;;;;;;5059118;28;20308;-49
2022/02/01 00:58:55;;;;;;;1.73;0.55;;;8.00;97.20;;;;;;5061556;28;20480;-49
2022/02/01 01:01:21;;;;;;;0.40;0.40;;;7.90;97.20;;;;;;5061284;28;20108;-48
2022/02/01 01:03:47;;;;;;;0.88;0.50;;;7.90;97.20;;;;;;5059176;28;20029;-49
2022/02/01 01:06:14;;;;;;;4.63;0.80;;;7.90;97.20;;;;;;5057106;28;20021;-48
2022/02/01 01:08:40;;;;;;;5.38;0.90;;;7.90;97.20;;;;;;5062115;28;20479;-48
2022/02/01 01:11:07;;;;;;;1.45;1.13;;;8.00;97.20;;;;;;5059674;28;20029;-49
2022/02/01 01:16:14;;;;;;;1.10;0.85;;;7.90;97.20;;;;;;5060354;28;20566;-49
2022/02/01 01:53:49;;;;;;;1.45;0.82;;;7.90;97.10;;;;;;5060140;28;20071;-48
2022/02/01 01:56:15;;;;;;;0.60;0.57;;;7.90;97.10;;;;;;5059648;28;20044;-49
2022/02/01 01:58:41;;;;;;;2.75;0.73;;;7.90;97.10;;;;;;5056112;28;20059;-49
2022/02/01 02:03:32;;;;;;;0.65;0.50;;;7.90;97.10;;;;;;5060979;28;20056;-49
2022/02/01 02:05:58;;;;;;;2.65;0.98;;;7.90;97.10;;;;;;5051062;28;20521;-49
2022/02/01 02:08:24;;;;;;;1.58;1.13;;;7.90;97.10;;;;;;5059953;28;20494;-49
2022/02/01 02:11:00;;;;;;;8.23;2.05;;;7.90;97.10;;;;;;5058618;28;20082;-49
2022/02/01 02:15:59;;;;;;;0.60;0.52;;;7.90;97.10;;;;;;5059418;28;20029;-49
2022/02/01 02:18:27;;;;;;;0.90;0.43;;;7.90;97.10;;;;;;5061424;28;20016;-49
2022/02/01 02:21:00;;;;;;;0.63;0.57;;;8.00;97.20;;;;;;5056609;28;20025;-49
2022/02/01 02:23:26;;;;;;;0.50;0.50;;;7.90;97.10;;;;;;5058592;28;20060;-49
2022/02/01 02:25:52;;;;;;;0.32;0.32;;;7.90;97.10;;;;;;5061545;28;20039;-49
2022/02/01 02:28:20;;;;;;;0.38;0.38;;;8.00;97.20;;;;;;5059786;28;20021;-49
2022/02/01 02:30:47;;;;;;;0.40;0.40;;;7.90;97.20;;;;;;5056278;28;20029;-49
2022/02/01 02:33:15;;;;;;;0.47;0.47;;;8.00;97.20;;;;;;5060584;28;20025;-49
2022/02/01 02:36:05;;;;;;;0.25;0.25;;;7.90;97.20;;;;;;5056558;28;20033;-49
2022/02/01 02:46:36;;;;;;;0.55;0.55;;;7.90;97.20;;;;;;5061479;28;20476;-48
2022/02/01 02:49:06;;;;;;;0.30;0.30;;;7.90;97.20;;;;;;5058526;28;20032;-49
2022/02/01 02:51:33;;;;;;;0.40;0.40;;;7.90;97.20;;;;;;5052485;28;20013;-49
2022/02/01 02:54:12;;;;;;;0.30;0.30;;;7.90;97.10;;;;;;5060874;28;20041;-48
2022/02/01 02:56:41;;;;;;;0.32;0.32;;;7.90;97.20;;;;;;5062642;28;20032;-49
2022/02/01 02:59:07;;;;;;;0.70;0.70;;;7.90;97.20;;;;;;5063549;28;20057;-49
2022/02/01 03:01:32;;;;;;;1.00;0.63;;;7.90;97.20;;;;;;5057502;28;20037;-49
2022/02/01 03:03:58;;;;;;;0.50;0.50;;;7.90;97.20;;;;;;5055327;28;20025;-49
2022/02/01 03:06:24;;;;;;;2.92;0.60;;;7.90;97.20;;;;;;5057890;28;20036;-49
2022/02/01 03:08:49;;;;;;;0.52;0.52;;;7.90;97.20;;;;;;5060155;28;20023;-49
2022/02/01 03:11:16;;;;;;;0.52;0.52;;;7.90;97.20;;;;;;5059201;28;20071;-49
2022/02/01 03:13:50;;;;;;;0.57;0.57;;;7.90;97.20;;;;;;5062270;28;20072;-49
2022/02/01 03:21:25;;;;;;;1.05;0.88;;;8.00;97.30;;;;;;5059735;28;20393;-49
2022/02/01 03:23:51;;;;;;;0.45;0.45;;;7.90;97.30;;;;;;5060824;28;20053;-48
2022/02/01 03:26:16;;;;;;;0.65;0.60;;;7.90;97.20;;;;;;5063593;28;20030;-49
2022/02/01 03:28:42;;;;;;;0.40;0.40;;;7.90;97.20;;;;;;5063660;28;20032;-49
2022/02/01 03:31:08;;;;;;;0.73;0.70;;;7.90;97.20;;;;;;5061216;28;20065;-49
2022/02/01 03:33:33;;;;;;;0.40;0.40;;;7.90;97.30;;;;;;5059860;28;20033;-49
2022/02/01 03:35:59;;;;;;;0.50;0.40;;;7.90;97.30;;;;;;5059428;28;20454;-49
2022/02/01 03:38:24;;;;;;;0.93;0.60;;;7.90;97.30;;;;;;5061727;28;20379;-49
2022/02/01 03:40:50;;;;;;;0.50;0.50;;;7.90;97.30;;;;;;5062755;28;20064;-49
2022/02/01 03:43:16;;;;;;;1.67;0.80;;;7.90;97.30;;;;;;5059683;28;20599;-49
2022/02/01 03:45:41;;;;;;;0.60;0.60;;;7.90;97.30;;;;;;5063752;28;20035;-48
2022/02/01 03:48:07;;;;;;;0.55;0.55;;;7.90;97.30;;;;;;5063471;28;20020;-49
2022/02/01 03:50:32;;;;;;;0.80;0.70;;;7.90;97.20;;;;;;5060691;28;20026;-49
2022/02/01 03:52:58;;;;;;;2.05;0.50;;;7.90;97.30;;;;;;5056953;28;20040;-49
2022/02/01 03:55:24;;;;;;;1.52;0.75;;;7.90;97.30;;;;;;5059797;28;20443;-49
2022/02/01 03:57:49;;;;;;;2.55;0.98;;;7.90;97.20;;;;;;5064574;28;20052;-49
2022/02/01 04:00:16;;;;;;;2.65;1.23;;;7.90;97.30;;;;;;5061523;28;20447;-49
2022/02/01 04:02:41;;;;;;;6.20;1.10;;;7.90;97.30;;;;;;5060764;28;20451;-49
2022/02/01 04:05:07;;;;;;;0.88;0.80;;;7.90;97.30;;;;;;5060694;28;20074;-49
2022/02/01 04:07:33;;;;;;;0.68;0.63;;;7.90;97.30;;;;;;5054670;28;20036;-49
2022/02/01 04:09:59;;;;;;;2.85;1.55;;;7.90;97.30;;;;;;5063711;28;20508;-49
2022/02/01 04:12:25;;;;;;;1.08;0.98;;;7.90;97.30;;;;;;5060608;28;20050;-48
2022/02/01 04:14:53;;;;;;;2.60;0.88;;;7.90;97.30;;;;;;5059215;28;20025;-48
2022/02/01 04:17:19;;;;;;;0.98;0.57;;;7.90;97.30;;;;;;5063626;28;20377;-49
2022/02/01 04:19:46;;;;;;;1.67;0.90;;;7.90;97.20;;;;;;5061360;28;20040;-48
2022/02/01 04:22:14;;;;;;;4.75;1.15;;;7.90;97.30;;;;;;5057813;28;20327;-48
2022/02/01 04:24:42;;;;;;;1.45;0.63;;;7.90;97.30;;;;;;5059429;28;20358;-48
2022/02/01 04:27:19;;;;;;;5.90;1.05;;;8.00;97.30;;;;;;5060758;28;20028;-48
2022/02/01 04:29:51;;;;;;;2.47;1.02;;;7.90;97.30;;;;;;5061677;28;20075;-49
2022/02/01 04:32:16;;;;;;;7.78;1.27;;;7.90;97.30;;;;;;5060155;28;20021;-49
2022/02/01 04:34:44;;;;;;;3.10;1.00;;;7.90;97.30;;;;;;5062512;28;20433;-48
2022/02/01 04:37:10;;;;;;;0.88;0.63;;;7.90;97.30;;;;;;5053399;28;20028;-49
2022/02/01 04:39:35;;;;;;;2.22;1.25;;;7.90;97.30;;;;;;5062997;28;20461;-49
2022/02/01 04:42:01;;;;;;;2.83;0.95;;;7.90;97.30;;;;;;5061063;28;20116;-49
2022/02/01 04:44:27;;;;;;;2.75;0.60;;;7.90;97.20;;;;;;5060286;28;20067;-49
2022/02/01 04:46:53;;;;;;;8.70;1.15;;;7.90;97.30;;;;;;5057128;28;20417;-48
2022/02/01 04:49:19;;;;;;;4.35;1.50;;;7.90;97.30;;;;;;5061696;28;20463;-49
2022/02/01 04:51:45;;;;;;;4.88;1.40;;;7.90;97.30;;;;;;5055956;28;20056;-49
2022/02/01 04:54:11;;;;;;;3.47;1.23;;;7.90;97.20;;;;;;5060326;28;20410;-48
2022/02/01 04:56:36;;;;;;;8.27;1.58;;;7.90;97.20;;;;;;5061693;28;20047;-49
2022/02/01 04:59:03;;;;;;;1.58;0.75;;;7.90;97.20;;;;;;5059113;28;20074;-49
2022/02/01 05:01:46;;;;;;;1.98;0.85;;;7.90;97.20;;;;;;5059527;28;20024;-49
2022/02/01 05:04:18;;;;;;;3.90;1.50;;;7.90;97.20;;;;;;5059025;28;20032;-49
2022/02/01 05:06:49;;;;;;;1.13;0.68;;;7.90;97.30;;;;;;5057375;28;20037;-49
2022/02/01 05:09:14;;;;;;;2.90;1.17;;;7.90;97.30;;;;;;5055126;28;20358;-49
2022/02/01 05:11:40;;;;;;;3.20;1.25;;;7.90;97.20;;;;;;5062011;28;20493;-49
2022/02/01 05:14:13;;;;;;;11.45;2.15;;;7.90;97.10;;;;;;5060344;28;20104;-49
2022/02/01 05:20:15;;;;;;;8.82;1.60;;;7.80;97.20;;;;;;5058167;28;20086;-49
2022/02/01 05:22:15;;;;;;;4.40;1.05;;;7.90;97.20;;;;;;5055889;28;20049;-48
2022/02/01 05:24:40;;;;;;;;;;;7.80;97.20;;;;;;5061722;28;20055;-49
2022/02/01 05:27:10;;;;;;;5.32;1.70;;;7.90;97.20;;;;;;5060052;28;19905;-49
2022/02/01 05:29:37;;;;;;;9.75;1.48;;;7.90;97.30;;;;;;5057890;28;20424;-49
2022/02/01 05:32:16;;;;;;;4.45;0.88;;;7.90;97.20;;;;;;5061534;28;20037;-48
2022/02/01 05:34:42;;;;;;;5.47;1.73;;;7.90;97.20;;;;;;5061618;28;20369;-49
2022/02/01 05:37:08;;;;;;;10.25;1.58;;;7.90;97.20;;;;;;5056206;28;20442;-49
2022/02/01 05:39:33;;;;;;;9.73;3.03;;;7.80;97.20;;;;;;5059076;28;20052;-49
2022/02/01 05:41:59;;;;;;;0.85;0.65;;;7.90;97.20;;;;;;5057427;28;20033;-49
2022/02/01 05:44:25;;;;;;;14.70;1.85;;;7.90;97.20;;;;;;5062494;28;20060;-49
2022/02/01 05:46:51;;;;;;;7.22;1.20;;;7.90;97.20;;;;;;5060061;28;20560;-49
2022/02/01 05:49:18;;;;;;;3.75;1.02;;;7.90;97.50;;;;;;5059627;28;20029;-49
2022/02/01 05:51:44;;;;;;;4.70;1.35;;;7.90;97.20;;;;;;5053968;28;20450;-49
2022/02/01 05:54:09;;;;;;;8.63;1.13;;;7.90;97.20;;;;;;5057431;28;20039;-49
2022/02/01 05:56:35;;;;;;;2.67;1.13;;;7.90;97.20;;;;;;5057913;28;20025;-48
2022/02/01 05:59:00;;;;;;;3.95;1.40;;;7.90;97.20;;;;;;5060662;28;20024;-48
2022/02/01 06:01:26;;;;;;;2.20;1.15;;;7.80;97.20;;;;;;5059027;28;20025;-48
2022/02/01 06:03:52;;;;;;;4.40;1.55;;;7.90;97.20;;;;;;5057737;28;20113;-49
2022/02/01 06:06:17;;;;;;;11.27;1.70;;;7.90;97.20;;;;;;5057478;28;20048;-49
2022/02/01 06:08:43;;;;;;;8.80;1.92;;;7.80;97.20;;;;;;5054810;28;20029;-49
2022/02/01 06:11:08;;;;;;;11.98;1.42;;;7.90;97.30;;;;;;5061737;28;20032;-49
2022/02/01 06:13:36;;;;;;;8.40;1.70;;;7.90;97.20;;;;;;5056742;28;20063;-48
2022/02/01 06:16:03;;;;;;;2.10;1.05;;;7.90;97.20;;;;;;5059112;28;20358;-49
2022/02/01 06:18:28;;;;;;;13.27;1.42;;;7.90;97.20;;;;;;5061430;28;20039;-48
2022/02/01 06:20:54;;;;;;;3.95;1.25;;;7.90;97.20;;;;;;5058616;28;20036;-49
2022/02/01 06:23:20;;;;;;;8.43;1.20;;;7.80;97.20;;;;;;5052649;28;20028;-49
2022/02/01 06:25:48;;;;;;;6.93;1.80;;;7.90;97.20;;;;;;5055796;28;20029;-49
2022/02/01 06:28:19;;;;;;;21.77;6.43;;;7.90;97.40;;;;;;5058053;28;20043;-48
2022/02/01 06:30:46;;;;;;;9.95;3.42;;;7.90;97.20;;;;;;5063161;28;20044;-48
2022/02/01 06:33:13;;;;;;;6.20;2.05;;;7.90;97.20;;;;;;5059306;28;20091;-49
2022/02/01 06:35:39;;;;;;;8.25;2.22;;;7.90;97.20;;;;;;5063697;28;20066;-48
2022/02/01 06:38:04;;;;;;;7.00;1.10;;;7.80;97.20;;;;;;5059708;28;20029;-48
2022/02/01 06:40:30;;;;;;;1.95;0.88;;;7.90;97.20;;;;;;5058381;28;20400;-49
2022/02/01 06:42:56;;;;;;;4.80;1.60;;;7.90;97.20;;;;;;5060282;28;20029;-48
2022/02/01 06:45:23;;;;;;;8.20;1.50;;;7.90;97.20;;;;;;5059999;28;20367;-48
2022/02/01 06:47:49;;;;;;;3.10;1.38;;;7.90;97.20;;;;;;5058530;28;20520;-49
2022/02/01 06:50:19;;;;;;;16.35;1.08;;;7.90;97.20;;;;;;5064424;28;20041;-49
2022/02/01 06:52:46;;;;;;;10.85;2.25;;;7.90;97.10;;;;;;5060319;28;20563;-49
2022/02/01 06:55:13;;;;;;;5.22;1.45;;;7.90;97.20;;;;;;5070806;28;20071;-49
2022/02/01 06:57:39;;;;;;;7.40;1.25;;;7.80;97.20;;;;;;5070780;28;20025;-49
2022/02/01 07:00:07;;;;;;;5.32;2.22;;;7.90;97.20;;;;;;5071223;28;20123;-48
2022/02/01 07:02:33;;;;;;;3.25;1.13;;;7.90;97.10;;;;;;5072572;28;20365;-48
2022/02/01 07:04:59;;;;;;;12.57;1.65;;;7.80;97.10;;;;;;5071887;28;20123;-49
2022/02/01 07:07:25;;;;;;;8.07;1.40;;;7.90;97.10;;;;;;5071663;28;21183;-48
2022/02/01 07:09:50;;;;;;;11.15;1.48;;;7.80;97.10;;;;;;5072408;28;20032;-48
2022/02/01 07:12:16;;;;;;;14.85;2.47;;;7.80;97.00;;;;;;5072836;28;20028;-48
2022/02/01 07:14:42;;;;;;;8.75;1.45;;;7.80;97.10;;;;;;5072156;28;20025;-49
2022/02/01 07:17:07;;;;;;;6.40;2.15;;;7.80;97.10;;;;;;5075764;28;20020;-48
2022/02/01 07:19:33;;;;;;;10.07;0.93;;;7.90;97.10;;;;;;5072866;28;20036;-48
2022/02/01 07:21:59;;;;;;;3.58;1.13;;;7.80;97.10;;;;;;5071556;28;20032;-48
2022/02/01 07:24:30;;;;;;;7.47;1.77;;;7.80;97.00;;;;;;5071659;28;20024;-49
2022/02/01 07:26:58;;;;;;;2.85;0.85;;;7.90;97.10;;;;;;5071053;28;20067;-49
2022/02/01 07:29:25;;;;;;;5.60;1.17;;;7.80;97.10;;;;;;5069104;28;20081;-48
2022/02/01 07:31:51;;;;;;;11.65;2.58;;;7.80;97.00;;;;;;5069863;28;20035;-48
2022/02/01 07:34:17;;;;;;;7.00;1.80;;;7.80;97.00;;;;;;5071341;28;20041;-48
2022/02/01 07:36:43;;;;;;;15.65;1.67;;;7.80;97.00;;;;;;5067646;28;20020;-49
2022/02/01 07:39:09;;;;;;;3.08;1.55;;;7.80;97.00;;;;;;5065424;28;20012;-49
2022/02/01 07:41:35;;;;;;;7.25;1.50;;;7.80;97.00;;;;;;5067494;28;20075;-48
2022/02/01 07:44:01;;;;;;;7.97;1.23;;;7.90;97.00;;;;;;5067927;28;20029;-48
2022/02/01 07:46:29;;;;;;;11.23;2.00;;;7.80;97.00;;;;;;5070032;28;20021;-49
2022/02/01 07:48:54;;;;;;;11.38;1.50;;;7.90;97.00;;;;;;5066418;28;20339;-48
2022/02/01 07:51:20;;;;;;;5.90;1.50;;;7.80;97.00;;;;;;5067431;28;20027;-49
2022/02/01 07:53:46;;;;;;;6.32;1.83;;;7.90;97.00;;;;;;5064361;28;20335;-49
2022/02/01 07:56:11;;;;;;;6.78;2.10;;;7.80;97.00;;;;;;5063733;28;20024;-48
2022/02/01 07:58:37;;;;;;;5.10;1.50;;;7.90;97.00;;;;;;5062989;28;20038;-49
2022/02/01 08:01:02;;;;;;;8.93;2.00;;;7.90;97.00;;;;;;5062134;28;20036;-49
2022/02/01 08:03:28;;;;;;;10.75;2.17;;;7.80;96.90;;;;;;5063675;28;20166;-48
2022/02/01 08:05:54;;;;;;;4.65;1.35;;;7.90;97.00;;;;;;5063767;28;20117;-49
2022/02/01 08:08:19;;;;;;;10.38;1.60;;;7.80;96.90;;;;;;5064802;28;20352;-49
2022/02/01 08:10:51;;;;;;;6.78;1.63;;;7.80;96.90;;;;;;5065059;28;20020;-49
2022/02/01 08:19:03;;;;;;;10.30;1.95;;;7.80;96.90;;;;;;5063302;28;20035;-49
2022/02/01 08:21:29;;;;;;;5.00;1.50;;;7.80;96.90;;;;;;5070030;28;20040;-49
2022/02/01 08:23:56;;;;;;;10.23;1.52;;;7.80;96.90;;;;;;5069206;28;20075;-49
2022/02/01 08:26:25;;;;;;;8.95;1.70;;;7.80;96.90;;;;;;5074862;28;20128;-48
2022/02/01 08:28:51;;;;;;;5.20;1.50;;;7.80;96.90;;;;;;5071678;28;20025;-49
2022/02/01 08:31:16;;;;;;;6.35;1.38;;;7.80;96.90;;;;;;5072647;28;20032;-49
2022/02/01 08:33:43;;;;;;;8.13;1.33;;;7.80;96.90;;;;;;5072167;28;20048;-48
2022/02/01 08:36:08;;;;;;;7.25;1.98;;;7.80;96.90;;;;;;5074246;28;20055;-48
2022/02/01 08:38:34;;;;;;;6.45;0.93;;;7.80;96.80;;;;;;5066202;28;20064;-49
2022/02/01 08:41:00;;;;;;;7.00;1.67;;;7.90;96.90;;;;;;5072630;28;20040;-49
2022/02/01 08:43:28;;;;;;;2.17;1.10;;;7.90;96.90;;;;;;5075368;28;20035;-49
2022/02/01 08:45:54;;;;;;;5.93;1.30;;;7.90;96.90;;;;;;5070353;28;20457;-49
2022/02/01 08:48:20;;;;;;;6.47;1.33;;;7.80;96.90;;;;;;5071184;28;20032;-49
2022/02/01 08:50:46;;;;;;;5.72;2.22;;;7.80;96.90;;;;;;5068354;28;20340;-48
2022/02/01 08:53:18;;;;;;;6.03;1.20;;;7.80;96.90;;;;;;5064178;28;20024;-49
2022/02/01 08:58:21;;;;;;;18.02;1.23;;;7.90;96.90;;;;;;5073308;28;20017;-48
2022/02/01 09:00:47;;;;;;;6.15;1.08;;;7.90;96.80;;;;;;5073732;28;20036;-49
2022/02/01 09:03:13;;;;;;;4.60;1.80;;;7.90;96.80;;;;;;5071032;28;20568;-48
2022/02/01 09:05:48;;;;;;;12.43;1.65;;;7.90;96.80;;;;;;5069666;28;20421;-49
2022/02/01 09:08:15;;;;;;;3.67;1.08;;;7.80;96.80;;;;;;5068725;28;20382;-49
2022/02/01 09:10:41;;;;;;;2.58;1.15;;;7.90;96.90;;;;;;5071750;28;20040;-49
2022/02/01 09:13:07;;;;;;;10.50;1.77;;;7.90;96.90;;;;;;5071684;28;20025;-48
2022/02/01 09:15:33;;;;;;;6.85;1.23;;;7.90;96.90;;;;;;5073319;28;20031;-48
2022/02/01 09:18:00;;;;;;;7.50;1.40;;;7.80;96.90;;;;;;5070245;28;20020;-49
2022/02/01 09:20:30;;;;;;;4.35;1.77;;;7.80;96.70;;;;;;5072268;28;20040;-48
2022/02/01 09:22:56;;;;;;;2.00;1.40;;;7.90;96.80;;;;;;5069806;28;20111;-48
2022/02/01 09:25:22;;;;;;;7.07;2.53;;;7.80;96.80;;;;;;5069576;28;20031;-48
2022/02/01 09:27:49;;;;;;;2.75;0.98;;;7.90;96.90;;;;;;5072909;28;20025;-49
2022/02/01 09:30:18;;;;;;;2.88;1.73;;;7.90;96.90;;;;;;5071299;28;20071;-48
2022/02/01 09:32:44;;;;;;;3.22;1.30;;;7.80;96.80;;;;;;5069420;28;20021;-48
2022/02/01 09:35:10;;;;;;;4.57;1.08;;;7.90;96.90;;;;;;5075414;28;20024;-49
2022/02/01 09:37:36;;;;;;;5.85;1.42;;;7.90;96.80;;;;;;5072395;28;20208;-49
2022/02/01 09:40:03;;;;;;;3.22;1.05;;;7.90;96.90;;;;;;5066678;28;20036;-49
2022/02/01 09:42:29;;;;;;;1.10;0.93;;;7.90;96.80;;;;;;5069746;28;20066;-48
2022/02/01 09:44:57;;;;;;;4.10;0.95;;;7.90;96.80;;;;;;5068076;28;20347;-49
2022/02/01 09:47:38;;;;;;;1.63;0.98;;;7.90;96.80;;;;;;5072837;28;20024;-48
2022/02/01 09:50:05;;;;;;;5.43;1.65;;;7.90;96.70;;;;;;5070044;28;20036;-48
2022/02/01 09:52:31;;;;;;;6.32;1.30;;;7.90;96.80;;;;;;5069569;28;20082;-48
2022/02/01 09:54:58;;;;;;;6.75;1.50;;;7.90;96.70;;;;;;5070787;28;20395;-49
2022/02/01 09:57:24;;;;;;;1.35;0.77;;;7.90;96.70;;;;;;5071971;28;20027;-48
2022/02/01 09:59:58;;;;;;;1.50;0.80;;;7.90;96.80;;;;;;5070349;28;20127;-49
2022/02/01 10:02:39;;;;;;;8.75;1.27;;;7.90;96.70;;;;;;5069442;28;20016;-49
2022/02/01 10:05:08;;;;;;;3.47;0.88;;;7.90;96.70;;;;;;5074871;28;20036;-49
2022/02/01 10:07:44;;;;;;;1.98;1.20;;;8.00;96.80;;;;;;5073675;28;20024;-49
2022/02/01 10:10:10;;;;;;;4.65;1.20;;;7.90;96.80;;;;;;5069965;28;20049;-49
2022/02/01 10:12:36;;;;;;;2.95;0.95;;;8.00;96.80;;;;;;5073409;28;20025;-49
2022/02/01 10:15:07;;;;;;;8.35;1.33;;;7.90;96.80;;;;;;5073945;28;20036;-49
2022/02/01 10:17:45;;;;;;;5.72;1.33;;;8.00;96.80;;;;;;5071021;28;20371;-49
2022/02/01 10:20:12;;;;;;;3.50;0.85;;;7.90;96.80;;;;;;5062380;28;20064;-48
2022/02/01 10:22:38;;;;;;;4.95;0.95;;;8.00;96.70;;;;;;5067251;28;20025;-49
2022/02/01 10:25:29;;;;;;;3.10;1.67;;;8.00;96.80;;;;;;5061705;28;20021;-48
2022/02/01 10:28:01;;;;;;;2.92;1.50;;;8.00;96.80;;;;;;5064405;28;20044;-49
2022/02/01 10:30:34;;;;;;;3.20;0.98;;;8.00;96.70;;;;;;5064714;28;20035;-49
2022/02/01 10:35:56;;;;;;;3.28;1.60;;;8.00;96.80;;;;;;5063325;28;20024;-49
2022/02/01 10:38:23;;;;;;;9.43;1.00;;;8.00;96.70;;;;;;5067605;28;20036;-49
2022/02/01 10:40:51;;;;;;;0.98;0.65;;;8.00;96.60;;;;;;5067575;28;20417;-48
2022/02/01 10:43:50;;;;;;;3.05;0.90;;;8.00;96.70;;;;;;5073087;28;20025;-48
2022/02/01 10:46:17;;;;;;;0.50;0.45;;;8.00;97.10;;;;;;5066995;28;20043;-49
2022/02/01 10:48:48;;;;;;;2.88;0.73;;;8.00;96.60;;;;;;5069986;28;20032;-49
2022/02/01 10:51:19;;;;;;;0.60;0.60;;;8.00;96.70;;;;;;5069069;28;20047;-49
2022/02/01 10:53:45;;;;;;;0.52;0.40;;;8.00;96.60;;;;;;5069304;28;20454;-49
2022/02/01 10:56:19;;;;;;;7.38;1.00;;;8.00;96.60;;;;;;5067661;28;20139;-49
2022/02/01 10:58:46;;;;;;;2.88;1.38;;;8.00;96.20;;;;;;5068063;28;20277;-49
2022/02/01 11:01:13;;;;;;;8.45;1.05;;;8.00;96.00;;;;;;5069925;28;20521;-49
2022/02/01 11:03:42;;;;;;;1.02;0.73;;;8.00;96.00;;;;;;5068774;28;20055;-49
2022/02/01 11:06:09;;;;;;;2.83;1.02;;;8.00;95.80;;;;;;5068716;28;20032;-49
2022/02/01 11:08:39;;;;;;;1.48;1.35;;;8.00;95.90;;;;;;5071098;28;20074;-49
2022/02/01 11:11:05;;;;;;;1.52;0.43;;;8.00;96.00;;;;;;5065898;28;20543;-48
2022/02/01 11:13:42;;;;;;;1.88;0.88;;;8.00;95.90;;;;;;5068566;28;20440;-48
2022/02/01 11:16:12;;;;;;;2.90;0.70;;;8.00;95.90;;;;;;5068323;28;20033;-49
2022/02/01 11:18:37;;;;;;;5.63;0.90;;;8.10;95.90;;;;;;5070712;28;20396;-49
2022/02/01 11:21:03;;;;;;;0.63;0.63;;;8.10;96.00;;;;;;5051870;28;20784;-48
2022/02/01 11:23:43;;;;;;;3.38;0.65;;;8.00;95.90;;;;;;5071289;28;20093;-49
2022/02/01 11:26:27;;;;;;;0.68;0.50;;;8.10;95.90;;;;;;5069864;28;20036;-49
2022/02/01 11:29:16;;;;;;;3.00;0.60;;;8.10;96.00;;;;;;5072806;28;20028;-49
2022/02/01 11:31:47;;;;;;;0.90;0.70;;;8.10;96.00;;;;;;5068925;28;20033;-49
2022/02/01 11:34:34;;;;;;;2.60;0.82;;;8.10;95.90;;;;;;5071790;28;20027;-49
2022/02/01 11:37:08;;;;;;;0.60;0.60;;;8.10;95.90;;;;;;5071619;28;20104;-49
2022/02/01 11:39:35;;;;;;;0.20;0.20;;;8.10;96.10;;;;;;5070417;28;20086;-48
2022/02/01 11:42:14;;;;;;;2.67;1.00;;;8.10;95.90;;;;;;5072707;28;20032;-48
2022/02/01 11:44:39;;;;;;;5.18;0.68;;;8.10;96.00;;;;;;5070771;28;20185;-49
2022/02/01 11:47:08;;;;;;;1.38;0.82;;;8.10;96.00;;;;;;5072113;28;20583;-49
2022/02/01 11:49:56;;;;;;;2.65;0.77;;;8.10;96.00;;;;;;5071882;28;20029;-49
2022/02/01 11:52:23;;;;;;;2.22;0.45;;;8.10;96.00;;;;;;5069341;28;20485;-49
2022/02/01 11:54:59;;;;;;;0.50;0.50;;;8.10;96.10;;;;;;5068952;28;20060;-49
2022/02/01 11:57:26;;;;;;;0.77;0.47;;;8.10;96.00;;;;;;5075150;28;20025;-49
2022/02/01 11:59:58;;;;;;;0.40;0.40;;;8.10;96.00;;;;;;5071606;28;20075;-49
2022/02/01 12:02:34;;;;;;;0.52;0.47;;;8.20;96.10;;;;;;5069187;28;20460;-49
2022/02/01 12:05:31;;;;;;;0.50;0.50;;;8.10;96.00;;;;;;5068503;28;20044;-49
2022/02/01 12:08:08;;;;;;;4.43;1.27;;;8.10;96.00;;;;;;5079067;28;20073;-49
2022/02/01 12:11:07;;;;;;;3.05;0.32;;;8.10;96.00;;;;;;5068596;28;20107;-48
2022/02/01 12:13:35;;;;;;;0.73;0.73;;;8.20;96.00;;;;;;5067071;28;20464;-49
2022/02/01 12:16:05;;;;;;;0.30;0.30;;;8.10;95.90;;;;;;5068416;28;20036;-49
2022/02/01 12:18:45;;;;;;;1.40;0.75;;;8.20;96.00;;;;;;5069794;28;20025;-49
2022/02/01 12:21:29;;;;;;;0.55;0.55;;;8.20;96.00;;;;;;5067397;28;20377;-48
2022/02/01 12:24:00;;;;;;;1.55;0.77;;;8.20;96.10;;;;;;5067470;28;20461;-48
2022/02/01 12:26:28;;;;;;;0.68;0.68;;;8.20;96.10;;;;;;5071496;28;20187;-49
2022/02/01 12:28:56;;;;;;;6.72;0.70;;;8.20;96.00;;;;;;5063814;28;20454;-49
2022/02/01 12:31:24;;;;;;;1.33;0.80;;;8.20;96.10;;;;;;5067132;28;20029;-48
2022/02/01 12:33:53;;;;;;;0.45;0.45;;;8.20;96.20;;;;;;5067375;28;20020;-49
2022/02/01 12:36:26;;;;;;;5.05;1.40;;;8.20;96.00;;;;;;5064773;28;20029;-49
2022/02/01 12:39:03;;;;;;;0.47;0.43;;;8.20;96.20;;;;;;5064767;28;20025;-48
2022/02/01 12:41:33;;;;;;;6.40;1.88;;;8.20;96.10;;;;;;5060171;28;20482;-48
2022/02/01 12:46:47;;;;;;;0.28;0.28;;;8.20;96.00;;;;;;5066923;28;20040;-48
2022/02/01 12:49:15;;;;;;;2.88;1.17;;;8.20;96.10;;;;;;5068180;28;20071;-49
2022/02/01 12:51:42;;;;;;;1.25;1.15;;;8.20;95.90;;;;;;5059302;28;20048;-49
2022/02/01 12:54:07;;;;;;;0.85;0.43;;;8.20;95.90;;;;;;5062977;28;20058;-49
2022/02/01 12:56:34;;;;;;;6.03;0.65;;;8.20;95.90;;;;;;5061569;28;20114;-49
2022/02/01 12:59:02;;;;;;;0.40;0.40;;;8.20;95.90;;;;;;5060047;28;20133;-49
2022/02/01 13:01:33;;;;;;;2.22;0.93;;;8.30;96.20;;;;;;5061938;28;20036;-49
2022/02/01 13:03:59;;;;;;;0.98;0.70;;;8.20;95.80;;;;;;5060685;28;20047;-49
2022/02/01 13:06:27;;;;;;;6.13;1.02;;;8.20;96.00;;;;;;5059782;28;20032;-49
2022/02/01 13:14:37;;;;;;;0.52;0.52;;;8.20;95.80;;;;;;5067929;28;20027;-49
2022/02/01 13:18:14;;;;;;;1.23;0.80;;;8.20;95.70;;;;;;5062387;28;20488;-49
2022/02/01 13:20:13;;;;;;;0.73;0.73;;;8.20;95.70;;;;;;5058676;28;20052;-49
2022/02/01 13:22:54;;;;;;;12.00;0.93;;;8.20;95.90;;;;;;5061515;28;20100;-49
2022/02/01 13:25:38;;;;;;;0.25;0.25;;;8.20;95.70;;;;;;5061931;28;20043;-49
2022/02/01 13:28:07;;;;;;;1.50;0.55;;;8.20;95.70;;;;;;5064967;28;20519;-49
2022/02/01 13:30:35;;;;;;;0.63;0.40;;;8.20;95.70;;;;;;5057735;28;20035;-49
2022/02/01 13:33:09;;;;;;;1.10;0.85;;;8.20;95.80;;;;;;5057676;28;20024;-49
2022/02/01 13:35:52;;;;;;;0.25;0.25;;;8.20;95.70;;;;;;5061929;28;20020;-48
2022/02/01 13:38:26;;;;;;;0.25;0.25;;;8.20;95.60;;;;;;5066547;28;20020;-49
2022/02/01 13:40:53;;;;;;;0.52;0.52;;;8.20;95.60;;;;;;5060743;28;20048;-48
2022/02/01 13:43:24;;;;;;;0.57;0.52;;;8.20;95.60;;;;;;5062963;28;20033;-49
2022/02/01 13:45:51;;;;;;;4.60;1.75;;;8.20;95.60;;;;;;5064202;28;20031;-49
2022/02/01 13:48:21;;;;;;;0.20;0.20;;;8.20;95.70;;;;;;5065437;28;20021;-49
2022/02/01 13:50:48;;;;;;;0.88;0.40;;;8.20;95.60;;;;;;5064222;28;20141;-48
2022/02/01 13:53:15;;;;;;;0.52;0.40;;;8.20;95.60;;;;;;5068224;28;20044;-49
2022/02/01 13:55:41;;;;;;;1.60;0.65;;;8.20;95.70;;;;;;5064254;28;20020;-48
2022/02/01 13:58:10;;;;;;;2.55;0.80;;;8.20;95.60;;;;;;5065197;28;20083;-48
2022/02/01 14:00:40;;;;;;;4.95;1.10;;;8.20;95.60;;;;;;5067395;28;20090;-48
2022/02/01 14:03:16;;;;;;;6.82;0.85;;;8.20;95.60;;;;;;5066781;28;20028;-49
2022/02/01 14:05:43;;;;;;;2.92;1.02;;;8.20;95.70;;;;;;5066409;28;20032;-49
2022/02/01 14:08:25;;;;;;;0.45;0.35;;;8.20;95.50;;;;;;5063079;28;20369;-48
2022/02/01 14:11:15;;;;;;;1.60;0.55;;;8.20;95.50;;;;;;5065879;28;20375;-49
2022/02/01 14:22:28;;;;;;;8.30;1.13;;;8.20;95.50;;;;;;5071740;28;20082;-49
2022/02/01 14:25:35;;;;;;;2.50;1.65;;;8.20;95.50;;;;;;5076156;28;20320;-49
2022/02/01 14:34:57;;;;;;;4.68;1.25;;;8.10;95.50;;;;;;5072469;28;20120;-49
2022/02/01 14:37:38;;;;;;;2.03;0.73;;;8.10;95.50;;;;;;5056490;28;20016;-49
2022/02/01 14:45:33;;;;;;;2.28;1.10;;;8.10;95.50;;;;;;5057965;28;20331;-49
2022/02/01 14:47:58;;;;;;;3.42;1.15;;;8.10;95.50;;;;;;5062919;28;20017;-48
2022/02/01 14:50:24;;;;;;;0.50;0.50;;;8.10;95.50;;;;;;5069313;28;20028;-49
2022/02/01 14:52:50;;;;;;;1.30;1.20;;;8.10;95.50;;;;;;5070533;28;20025;-49
2022/02/01 14:55:21;;;;;;;2.67;1.30;;;8.10;95.60;;;;;;5076342;28;20031;-49
2022/02/01 15:13:41;;;;;;;0.63;0.63;;;8.00;95.50;;;;;;5067992;28;20283;-49
2022/02/01 15:16:06;;;;;;;1.10;0.50;;;8.00;95.40;;;;;;5069091;28;20033;-49
2022/02/01 15:18:32;;;;;;;4.72;1.15;;;8.10;95.50;;;;;;5061878;28;20035;-49
2022/02/01 15:20:58;;;;;;;1.80;1.17;;;8.10;95.40;;;;;;5062083;28;20477;-49